CheckWX is a tool to help pilots better visualize weather data.  It is not intended as a substitute for an official pre-flight weather briefing.

07:50:23 UTC

KELD METAR
South Arkansas Regional at Goodwin Field Airport
El Dorado, Arkansas, USA
Current

57 mins ago

KELD 120653Z AUTO 00000KT 10SM CLR M01/M02 A3045 RMK AO2 SLP311 I1000 T10111017
Observed
Dec-12 @ 06:53 UTC
Visibility
10 SM
Flight Rules
VFR
Cloud Levels
  • Clear skies
Temperature
-1°C / 30°F
Dewpoint
-2°C / 28°F
Humidity
93%
Altimeter
30.45" Hg
Pressure
1031.12 hPa
Previous

2 hours ago

KELD 120553Z AUTO 00000KT 10SM CLR M01/M01 A3047 RMK AO2 SLP318 I1000 I6000 T10061011 10039 21006 401111028 58006
Observed
Dec-12 @ 05:53 UTC
Visibility
10 SM
Flight Rules
VFR
Cloud Levels
  • Clear skies
Temperature
-1°C / 30°F
Dewpoint
-1°C / 30°F
Humidity
100%
Altimeter
30.47" Hg
Pressure
1031.82 hPa
Previous

3 hours ago

KELD 120453Z AUTO 00000KT 10SM CLR M01/M01 A3048 RMK AO2 SLP323 I1000 T10061011
Observed
Dec-12 @ 04:53 UTC
Visibility
10 SM
Flight Rules
VFR
Cloud Levels
  • Clear skies
Temperature
-1°C / 30°F
Dewpoint
-1°C / 30°F
Humidity
100%
Altimeter
30.48" Hg
Pressure
1032.22 hPa